sensor_id;sensor_type;location;lat;lon;timestamp;temperature;humidity
66035;HTU21D;52805;51.074;5.842;2023-12-20T00:01:23;9.49;118.99
66035;HTU21D;52805;51.074;5.842;2023-12-20T00:03:48;9.47;118.99
66035;HTU21D;52805;51.074;5.842;2023-12-20T00:06:14;9.45;118.99
66035;HTU21D;52805;51.074;5.842;2023-12-20T00:08:40;9.37;118.99
66035;HTU21D;52805;51.074;5.842;2023-12-20T00:11:05;9.30;118.99
66035;HTU21D;52805;51.074;5.842;2023-12-20T00:13:31;9.22;118.99
66035;HTU21D;52805;51.074;5.842;2023-12-20T00:15:57;9.18;118.99
66035;HTU21D;52805;51.074;5.842;2023-12-20T00:18:23;9.05;118.99
66035;HTU21D;52805;51.074;5.842;2023-12-20T00:20:48;9.03;118.99
66035;HTU21D;52805;51.074;5.842;2023-12-20T00:23:14;8.93;118.99
66035;HTU21D;52805;51.074;5.842;2023-12-20T00:25:40;8.87;118.99
66035;HTU21D;52805;51.074;5.842;2023-12-20T00:28:06;8.82;118.99
66035;HTU21D;52805;51.074;5.842;2023-12-20T00:30:32;8.68;118.99
66035;HTU21D;52805;51.074;5.842;2023-12-20T00:32:58;8.61;118.99
66035;HTU21D;52805;51.074;5.842;2023-12-20T00:35:23;8.52;116.86
66035;HTU21D;52805;51.074;5.842;2023-12-20T00:37:49;8.53;117.51
66035;HTU21D;52805;51.074;5.842;2023-12-20T00:40:15;8.44;116.85
66035;HTU21D;52805;51.074;5.842;2023-12-20T00:42:41;8.36;116.86
66035;HTU21D;52805;51.074;5.842;2023-12-20T00:45:07;8.35;115.64
66035;HTU21D;52805;51.074;5.842;2023-12-20T00:47:33;8.30;115.16
66035;HTU21D;52805;51.074;5.842;2023-12-20T00:49:59;8.27;115.17
66035;HTU21D;52805;51.074;5.842;2023-12-20T00:52:25;8.28;114.40
66035;HTU21D;52805;51.074;5.842;2023-12-20T00:54:51;8.24;113.73
66035;HTU21D;52805;51.074;5.842;2023-12-20T00:57:17;8.24;113.45
66035;HTU21D;52805;51.074;5.842;2023-12-20T00:59:43;8.24;112.26
66035;HTU21D;52805;51.074;5.842;2023-12-20T01:02:08;8.22;111.93
66035;HTU21D;52805;51.074;5.842;2023-12-20T01:04:35;8.22;111.79
66035;HTU21D;52805;51.074;5.842;2023-12-20T01:07:01;8.22;111.68
66035;HTU21D;52805;51.074;5.842;2023-12-20T01:09:27;8.26;111.63
66035;HTU21D;52805;51.074;5.842;2023-12-20T01:11:53;8.28;111.74
66035;HTU21D;52805;51.074;5.842;2023-12-20T01:14:19;8.29;111.44
66035;HTU21D;52805;51.074;5.842;2023-12-20T01:16:45;8.30;111.22
66035;HTU21D;52805;51.074;5.842;2023-12-20T01:19:11;8.28;111.60
66035;HTU21D;52805;51.074;5.842;2023-12-20T01:21:36;8.24;111.19
66035;HTU21D;52805;51.074;5.842;2023-12-20T01:24:02;8.20;111.63
66035;HTU21D;52805;51.074;5.842;2023-12-20T01:26:28;8.16;111.16
66035;HTU21D;52805;51.074;5.842;2023-12-20T01:28:53;8.09;111.45
66035;HTU21D;52805;51.074;5.842;2023-12-20T01:31:19;8.08;111.49
66035;HTU21D;52805;51.074;5.842;2023-12-20T01:33:45;8.06;111.90
66035;HTU21D;52805;51.074;5.842;2023-12-20T01:36:11;8.08;111.62
66035;HTU21D;52805;51.074;5.842;2023-12-20T01:38:37;8.04;110.56
66035;HTU21D;52805;51.074;5.842;2023-12-20T01:41:03;8.04;110.98
66035;HTU21D;52805;51.074;5.842;2023-12-20T01:43:29;7.98;110.10
66035;HTU21D;52805;51.074;5.842;2023-12-20T01:45:57;7.92;109.88
66035;HTU21D;52805;51.074;5.842;2023-12-20T01:48:24;7.85;110.47
66035;HTU21D;52805;51.074;5.842;2023-12-20T01:50:51;7.81;110.40
66035;HTU21D;52805;51.074;5.842;2023-12-20T01:53:20;7.74;110.91
66035;HTU21D;52805;51.074;5.842;2023-12-20T01:55:50;7.69;110.71
66035;HTU21D;52805;51.074;5.842;2023-12-20T01:58:17;7.65;110.96
66035;HTU21D;52805;51.074;5.842;2023-12-20T02:00:43;7.63;110.33
66035;HTU21D;52805;51.074;5.842;2023-12-20T02:03:09;7.62;110.35
66035;HTU21D;52805;51.074;5.842;2023-12-20T02:05:35;7.56;110.53
66035;HTU21D;52805;51.074;5.842;2023-12-20T02:08:03;7.54;111.05
66035;HTU21D;52805;51.074;5.842;2023-12-20T02:10:28;7.54;110.66
66035;HTU21D;52805;51.074;5.842;2023-12-20T02:12:54;7.53;111.17
66035;HTU21D;52805;51.074;5.842;2023-12-20T02:15:21;7.52;111.37
66035;HTU21D;52805;51.074;5.842;2023-12-20T02:17:47;7.49;111.65
66035;HTU21D;52805;51.074;5.842;2023-12-20T02:20:14;7.49;112.07
66035;HTU21D;52805;51.074;5.842;2023-12-20T02:22:39;7.50;112.13
66035;HTU21D;52805;51.074;5.842;2023-12-20T02:25:05;7.52;111.74
66035;HTU21D;52805;51.074;5.842;2023-12-20T02:27:31;7.58;111.17
66035;HTU21D;52805;51.074;5.842;2023-12-20T02:29:57;7.54;111.08
66035;HTU21D;52805;51.074;5.842;2023-12-20T02:32:24;7.54;111.44
66035;HTU21D;52805;51.074;5.842;2023-12-20T02:34:54;7.55;110.00
66035;HTU21D;52805;51.074;5.842;2023-12-20T02:37:20;7.52;111.34
66035;HTU21D;52805;51.074;5.842;2023-12-20T02:39:46;7.48;111.46
66035;HTU21D;52805;51.074;5.842;2023-12-20T02:42:12;7.53;111.84
66035;HTU21D;52805;51.074;5.842;2023-12-20T02:44:38;7.52;111.43
66035;HTU21D;52805;51.074;5.842;2023-12-20T02:47:04;7.56;111.26
66035;HTU21D;52805;51.074;5.842;2023-12-20T02:49:29;7.54;112.39
66035;HTU21D;52805;51.074;5.842;2023-12-20T02:51:55;7.59;111.64
66035;HTU21D;52805;51.074;5.842;2023-12-20T02:54:21;7.56;112.19
66035;HTU21D;52805;51.074;5.842;2023-12-20T02:56:47;7.61;111.89
66035;HTU21D;52805;51.074;5.842;2023-12-20T02:59:13;7.61;111.87
66035;HTU21D;52805;51.074;5.842;2023-12-20T03:01:44;7.59;112.29
66035;HTU21D;52805;51.074;5.842;2023-12-20T03:04:10;7.57;112.44
66035;HTU21D;52805;51.074;5.842;2023-12-20T03:06:36;7.59;112.23
66035;HTU21D;52805;51.074;5.842;2023-12-20T03:09:01;7.50;113.17
66035;HTU21D;52805;51.074;5.842;2023-12-20T03:11:27;7.47;113.17
66035;HTU21D;52805;51.074;5.842;2023-12-20T03:13:56;7.43;111.49
66035;HTU21D;52805;51.074;5.842;2023-12-20T03:16:23;7.39;111.71
66035;HTU21D;52805;51.074;5.842;2023-12-20T03:18:49;7.35;111.49
66035;HTU21D;52805;51.074;5.842;2023-12-20T03:21:15;7.34;112.61
66035;HTU21D;52805;51.074;5.842;2023-12-20T03:23:41;7.31;112.65
66035;HTU21D;52805;51.074;5.842;2023-12-20T03:26:07;7.37;112.64
66035;HTU21D;52805;51.074;5.842;2023-12-20T03:28:33;7.37;112.34
66035;HTU21D;52805;51.074;5.842;2023-12-20T03:30:59;7.43;112.11
66035;HTU21D;52805;51.074;5.842;2023-12-20T03:33:25;7.39;112.06
66035;HTU21D;52805;51.074;5.842;2023-12-20T03:35:50;7.41;112.62
66035;HTU21D;52805;51.074;5.842;2023-12-20T03:38:16;7.39;112.85
66035;HTU21D;52805;51.074;5.842;2023-12-20T03:40:41;7.44;113.10
66035;HTU21D;52805;51.074;5.842;2023-12-20T03:43:07;7.40;112.48
66035;HTU21D;52805;51.074;5.842;2023-12-20T03:45:33;7.40;113.22
66035;HTU21D;52805;51.074;5.842;2023-12-20T03:47:59;7.37;113.28
66035;HTU21D;52805;51.074;5.842;2023-12-20T03:50:26;7.33;113.98
66035;HTU21D;52805;51.074;5.842;2023-12-20T03:52:52;7.34;113.49
66035;HTU21D;52805;51.074;5.842;2023-12-20T03:55:18;7.32;113.17
66035;HTU21D;52805;51.074;5.842;2023-12-20T03:57:44;7.24;113.60
66035;HTU21D;52805;51.074;5.842;2023-12-20T04:00:10;7.20;112.85
66035;HTU21D;52805;51.074;5.842;2023-12-20T04:02:41;7.19;113.19
66035;HTU21D;52805;51.074;5.842;2023-12-20T04:05:08;7.18;113.03
66035;HTU21D;52805;51.074;5.842;2023-12-20T04:07:34;7.15;113.13
66035;HTU21D;52805;51.074;5.842;2023-12-20T04:10:00;7.15;113.81
66035;HTU21D;52805;51.074;5.842;2023-12-20T04:12:28;7.17;113.19
66035;HTU21D;52805;51.074;5.842;2023-12-20T04:14:53;7.17;112.53
66035;HTU21D;52805;51.074;5.842;2023-12-20T04:17:20;7.19;112.80
66035;HTU21D;52805;51.074;5.842;2023-12-20T04:19:48;7.18;112.53
66035;HTU21D;52805;51.074;5.842;2023-12-20T04:22:14;7.17;113.02
66035;HTU21D;52805;51.074;5.842;2023-12-20T04:24:39;7.18;113.63
66035;HTU21D;52805;51.074;5.842;2023-12-20T04:27:07;7.18;114.12
66035;HTU21D;52805;51.074;5.842;2023-12-20T04:29:33;7.20;113.87
66035;HTU21D;52805;51.074;5.842;2023-12-20T04:31:59;7.23;113.38
66035;HTU21D;52805;51.074;5.842;2023-12-20T04:34:25;7.26;114.03
66035;HTU21D;52805;51.074;5.842;2023-12-20T04:36:52;7.24;114.57
66035;HTU21D;52805;51.074;5.842;2023-12-20T04:39:17;7.24;114.67
66035;HTU21D;52805;51.074;5.842;2023-12-20T04:41:43;7.27;113.63
66035;HTU21D;52805;51.074;5.842;2023-12-20T04:44:08;7.30;113.60
66035;HTU21D;52805;51.074;5.842;2023-12-20T04:46:34;7.28;114.01
66035;HTU21D;52805;51.074;5.842;2023-12-20T04:49:01;7.27;115.19
66035;HTU21D;52805;51.074;5.842;2023-12-20T04:51:27;7.33;114.99
66035;HTU21D;52805;51.074;5.842;2023-12-20T04:53:52;7.31;115.26
66035;HTU21D;52805;51.074;5.842;2023-12-20T04:56:18;7.31;115.73
66035;HTU21D;52805;51.074;5.842;2023-12-20T04:58:44;7.37;114.10
66035;HTU21D;52805;51.074;5.842;2023-12-20T05:01:10;7.33;115.01
66035;HTU21D;52805;51.074;5.842;2023-12-20T05:03:35;7.35;114.93
66035;HTU21D;52805;51.074;5.842;2023-12-20T05:06:01;7.34;114.93
66035;HTU21D;52805;51.074;5.842;2023-12-20T05:08:27;7.31;115.41
66035;HTU21D;52805;51.074;5.842;2023-12-20T05:10:54;7.34;116.25
66035;HTU21D;52805;51.074;5.842;2023-12-20T05:13:21;7.31;115.88
66035;HTU21D;52805;51.074;5.842;2023-12-20T05:15:46;7.37;115.48
66035;HTU21D;52805;51.074;5.842;2023-12-20T05:18:12;7.37;115.26
66035;HTU21D;52805;51.074;5.842;2023-12-20T05:20:39;7.40;115.28
66035;HTU21D;52805;51.074;5.842;2023-12-20T05:23:05;7.39;115.26
66035;HTU21D;52805;51.074;5.842;2023-12-20T05:25:30;7.39;116.38
66035;HTU21D;52805;51.074;5.842;2023-12-20T05:27:56;7.40;115.73
66035;HTU21D;52805;51.074;5.842;2023-12-20T05:30:22;7.41;114.80
66035;HTU21D;52805;51.074;5.842;2023-12-20T05:32:48;7.40;115.89
66035;HTU21D;52805;51.074;5.842;2023-12-20T05:35:14;7.45;114.13
66035;HTU21D;52805;51.074;5.842;2023-12-20T05:37:41;7.40;115.07
66035;HTU21D;52805;51.074;5.842;2023-12-20T05:40:07;7.40;114.54
66035;HTU21D;52805;51.074;5.842;2023-12-20T05:42:36;7.37;115.22
66035;HTU21D;52805;51.074;5.842;2023-12-20T05:45:03;7.33;115.04
66035;HTU21D;52805;51.074;5.842;2023-12-20T05:47:29;7.31;115.60
66035;HTU21D;52805;51.074;5.842;2023-12-20T05:49:55;7.30;115.16
66035;HTU21D;52805;51.074;5.842;2023-12-20T05:52:21;7.34;115.93
66035;HTU21D;52805;51.074;5.842;2023-12-20T05:54:47;7.31;116.28
66035;HTU21D;52805;51.074;5.842;2023-12-20T05:57:13;7.33;116.27
66035;HTU21D;52805;51.074;5.842;2023-12-20T05:59:39;7.33;116.24
66035;HTU21D;52805;51.074;5.842;2023-12-20T06:02:05;7.41;116.31
66035;HTU21D;52805;51.074;5.842;2023-12-20T06:04:31;7.39;115.51
66035;HTU21D;52805;51.074;5.842;2023-12-20T06:06:56;7.44;115.20
66035;HTU21D;52805;51.074;5.842;2023-12-20T06:09:22;7.42;115.24
66035;HTU21D;52805;51.074;5.842;2023-12-20T06:11:48;7.43;114.85
66035;HTU21D;52805;51.074;5.842;2023-12-20T06:14:13;7.41;114.73
66035;HTU21D;52805;51.074;5.842;2023-12-20T06:16:39;7.37;114.05
66035;HTU21D;52805;51.074;5.842;2023-12-20T06:19:05;7.30;115.02
66035;HTU21D;52805;51.074;5.842;2023-12-20T06:21:30;7.26;114.51
66035;HTU21D;52805;51.074;5.842;2023-12-20T06:23:56;7.27;113.57
66035;HTU21D;52805;51.074;5.842;2023-12-20T06:26:22;7.20;114.86
66035;HTU21D;52805;51.074;5.842;2023-12-20T06:28:48;7.16;113.73
66035;HTU21D;52805;51.074;5.842;2023-12-20T06:31:13;7.12;115.03
66035;HTU21D;52805;51.074;5.842;2023-12-20T06:33:39;7.10;115.19
66035;HTU21D;52805;51.074;5.842;2023-12-20T06:36:06;7.08;113.99
66035;HTU21D;52805;51.074;5.842;2023-12-20T06:38:32;7.04;114.54
66035;HTU21D;52805;51.074;5.842;2023-12-20T06:40:58;7.04;113.95
66035;HTU21D;52805;51.074;5.842;2023-12-20T06:43:24;7.02;113.48
66035;HTU21D;52805;51.074;5.842;2023-12-20T06:45:50;7.00;113.69
66035;HTU21D;52805;51.074;5.842;2023-12-20T06:48:16;6.96;114.63
66035;HTU21D;52805;51.074;5.842;2023-12-20T06:50:42;6.96;113.88
66035;HTU21D;52805;51.074;5.842;2023-12-20T06:53:07;6.97;112.68
66035;HTU21D;52805;51.074;5.842;2023-12-20T06:55:35;6.93;113.16
66035;HTU21D;52805;51.074;5.842;2023-12-20T06:58:01;6.98;111.90
66035;HTU21D;52805;51.074;5.842;2023-12-20T07:00:27;6.88;113.96
66035;HTU21D;52805;51.074;5.842;2023-12-20T07:02:53;6.88;113.26
66035;HTU21D;52805;51.074;5.842;2023-12-20T07:05:19;6.82;113.90
66035;HTU21D;52805;51.074;5.842;2023-12-20T07:07:46;6.83;113.41
66035;HTU21D;52805;51.074;5.842;2023-12-20T07:10:13;6.78;114.40
66035;HTU21D;52805;51.074;5.842;2023-12-20T07:12:38;6.81;114.77
66035;HTU21D;52805;51.074;5.842;2023-12-20T07:15:04;6.80;113.71
66035;HTU21D;52805;51.074;5.842;2023-12-20T07:17:32;6.78;113.89
66035;HTU21D;52805;51.074;5.842;2023-12-20T07:19:58;6.78;114.14
66035;HTU21D;52805;51.074;5.842;2023-12-20T07:22:24;6.80;113.45
66035;HTU21D;52805;51.074;5.842;2023-12-20T07:24:50;6.75;114.30
66035;HTU21D;52805;51.074;5.842;2023-12-20T07:27:17;6.75;113.22
66035;HTU21D;52805;51.074;5.842;2023-12-20T07:29:43;6.74;113.72
66035;HTU21D;52805;51.074;5.842;2023-12-20T07:32:09;6.73;113.51
66035;HTU21D;52805;51.074;5.842;2023-12-20T07:34:34;6.70;114.07
66035;HTU21D;52805;51.074;5.842;2023-12-20T07:37:00;6.78;113.42
66035;HTU21D;52805;51.074;5.842;2023-12-20T07:39:26;6.71;113.72
66035;HTU21D;52805;51.074;5.842;2023-12-20T07:41:51;6.68;113.51
66035;HTU21D;52805;51.074;5.842;2023-12-20T07:44:17;6.68;114.14
66035;HTU21D;52805;51.074;5.842;2023-12-20T07:46:42;6.64;114.45
66035;HTU21D;52805;51.074;5.842;2023-12-20T07:49:08;6.64;114.41
66035;HTU21D;52805;51.074;5.842;2023-12-20T07:51:35;6.67;114.23
66035;HTU21D;52805;51.074;5.842;2023-12-20T07:54:01;6.69;114.38
66035;HTU21D;52805;51.074;5.842;2023-12-20T07:56:26;6.69;114.08
66035;HTU21D;52805;51.074;5.842;2023-12-20T07:58:52;6.71;112.89
66035;HTU21D;52805;51.074;5.842;2023-12-20T08:01:18;6.72;113.21
66035;HTU21D;52805;51.074;5.842;2023-12-20T08:03:44;6.74;113.00
66035;HTU21D;52805;51.074;5.842;2023-12-20T08:06:09;6.74;113.59
66035;HTU21D;52805;51.074;5.842;2023-12-20T08:08:35;6.73;113.54
66035;HTU21D;52805;51.074;5.842;2023-12-20T08:11:01;6.79;113.84
66035;HTU21D;52805;51.074;5.842;2023-12-20T08:13:28;6.76;112.64
66035;HTU21D;52805;51.074;5.842;2023-12-20T08:15:53;6.78;113.71
66035;HTU21D;52805;51.074;5.842;2023-12-20T08:18:19;6.80;113.22
66035;HTU21D;52805;51.074;5.842;2023-12-20T08:20:45;6.80;112.84
66035;HTU21D;52805;51.074;5.842;2023-12-20T08:23:12;6.85;112.23
66035;HTU21D;52805;51.074;5.842;2023-12-20T08:25:37;6.81;112.68
66035;HTU21D;52805;51.074;5.842;2023-12-20T08:28:03;6.84;113.12
66035;HTU21D;52805;51.074;5.842;2023-12-20T08:30:29;6.88;112.45
66035;HTU21D;52805;51.074;5.842;2023-12-20T08:32:56;6.96;112.87
66035;HTU21D;52805;51.074;5.842;2023-12-20T08:35:22;7.03;112.34
66035;HTU21D;52805;51.074;5.842;2023-12-20T08:37:47;7.08;112.02
66035;HTU21D;52805;51.074;5.842;2023-12-20T08:40:13;7.09;111.46
66035;HTU21D;52805;51.074;5.842;2023-12-20T08:42:39;7.19;111.11
66035;HTU21D;52805;51.074;5.842;2023-12-20T08:45:05;7.15;111.07
66035;HTU21D;52805;51.074;5.842;2023-12-20T08:47:31;7.16;111.23
66035;HTU21D;52805;51.074;5.842;2023-12-20T08:49:56;7.19;109.47
66035;HTU21D;52805;51.074;5.842;2023-12-20T08:52:24;7.22;109.31
66035;HTU21D;52805;51.074;5.842;2023-12-20T08:54:53;7.23;108.77
66035;HTU21D;52805;51.074;5.842;2023-12-20T08:57:22;7.20;109.07
66035;HTU21D;52805;51.074;5.842;2023-12-20T08:59:51;7.27;109.13
66035;HTU21D;52805;51.074;5.842;2023-12-20T09:02:17;7.24;110.26
66035;HTU21D;52805;51.074;5.842;2023-12-20T09:04:43;7.33;109.06
66035;HTU21D;52805;51.074;5.842;2023-12-20T09:07:22;7.34;108.75
66035;HTU21D;52805;51.074;5.842;2023-12-20T09:09:48;7.43;108.55
66035;HTU21D;52805;51.074;5.842;2023-12-20T09:12:14;7.39;108.46
66035;HTU21D;52805;51.074;5.842;2023-12-20T09:14:40;7.42;108.11
66035;HTU21D;52805;51.074;5.842;2023-12-20T09:17:06;7.41;107.60
66035;HTU21D;52805;51.074;5.842;2023-12-20T09:19:34;7.45;107.33
66035;HTU21D;52805;51.074;5.842;2023-12-20T09:22:00;7.45;108.62
66035;HTU21D;52805;51.074;5.842;2023-12-20T09:24:26;7.55;106.84
66035;HTU21D;52805;51.074;5.842;2023-12-20T09:26:52;7.57;106.11
66035;HTU21D;52805;51.074;5.842;2023-12-20T09:29:17;7.57;106.10
66035;HTU21D;52805;51.074;5.842;2023-12-20T09:31:44;7.56;106.10
66035;HTU21D;52805;51.074;5.842;2023-12-20T09:34:12;7.55;106.19
66035;HTU21D;52805;51.074;5.842;2023-12-20T09:36:37;7.61;105.69
66035;HTU21D;52805;51.074;5.842;2023-12-20T09:39:06;7.67;105.66
66035;HTU21D;52805;51.074;5.842;2023-12-20T09:41:37;7.69;105.51
66035;HTU21D;52805;51.074;5.842;2023-12-20T09:44:08;7.75;104.63
66035;HTU21D;52805;51.074;5.842;2023-12-20T09:46:43;7.81;104.44
66035;HTU21D;52805;51.074;5.842;2023-12-20T09:49:10;7.81;104.02
66035;HTU21D;52805;51.074;5.842;2023-12-20T09:51:37;7.91;102.25
66035;HTU21D;52805;51.074;5.842;2023-12-20T09:54:05;7.88;102.86
66035;HTU21D;52805;51.074;5.842;2023-12-20T09:56:31;7.98;101.86
66035;HTU21D;52805;51.074;5.842;2023-12-20T09:58:57;7.98;101.48
66035;HTU21D;52805;51.074;5.842;2023-12-20T10:01:24;7.98;100.87
66035;HTU21D;52805;51.074;5.842;2023-12-20T10:03:54;7.99;101.19
66035;HTU21D;52805;51.074;5.842;2023-12-20T10:06:21;8.02;100.86
66035;HTU21D;52805;51.074;5.842;2023-12-20T10:08:47;8.00;101.14
66035;HTU21D;52805;51.074;5.842;2023-12-20T10:11:13;8.05;101.88
66035;HTU21D;52805;51.074;5.842;2023-12-20T10:13:40;8.09;101.72
66035;HTU21D;52805;51.074;5.842;2023-12-20T10:16:06;8.14;101.27
66035;HTU21D;52805;51.074;5.842;2023-12-20T10:18:33;8.12;101.12
66035;HTU21D;52805;51.074;5.842;2023-12-20T10:21:00;8.16;99.88
66035;HTU21D;52805;51.074;5.842;2023-12-20T10:23:25;8.23;99.58
66035;HTU21D;52805;51.074;5.842;2023-12-20T10:25:59;8.27;98.43
66035;HTU21D;52805;51.074;5.842;2023-12-20T10:28:25;8.29;99.08
66035;HTU21D;52805;51.074;5.842;2023-12-20T10:30:55;8.35;98.03
66035;HTU21D;52805;51.074;5.842;2023-12-20T10:33:30;8.42;97.74
66035;HTU21D;52805;51.074;5.842;2023-12-20T10:35:57;8.37;97.78
66035;HTU21D;52805;51.074;5.842;2023-12-20T10:38:23;8.39;97.85
66035;HTU21D;52805;51.074;5.842;2023-12-20T10:40:54;8.43;97.38
66035;HTU21D;52805;51.074;5.842;2023-12-20T10:43:23;8.43;98.13
66035;HTU21D;52805;51.074;5.842;2023-12-20T10:45:51;8.45;97.12
66035;HTU21D;52805;51.074;5.842;2023-12-20T10:48:18;8.44;97.11
66035;HTU21D;52805;51.074;5.842;2023-12-20T10:50:44;8.48;97.52
66035;HTU21D;52805;51.074;5.842;2023-12-20T10:53:10;8.52;96.82
66035;HTU21D;52805;51.074;5.842;2023-12-20T10:55:37;8.57;97.41
66035;HTU21D;52805;51.074;5.842;2023-12-20T10:58:13;8.65;96.14
66035;HTU21D;52805;51.074;5.842;2023-12-20T11:00:40;8.64;96.06
66035;HTU21D;52805;51.074;5.842;2023-12-20T11:03:09;8.68;96.16
66035;HTU21D;52805;51.074;5.842;2023-12-20T11:05:50;8.66;96.11
66035;HTU21D;52805;51.074;5.842;2023-12-20T11:08:36;8.70;96.12
66035;HTU21D;52805;51.074;5.842;2023-12-20T11:11:08;8.77;95.39
66035;HTU21D;52805;51.074;5.842;2023-12-20T11:13:47;8.75;95.32
66035;HTU21D;52805;51.074;5.842;2023-12-20T11:16:13;8.74;95.19
66035;HTU21D;52805;51.074;5.842;2023-12-20T11:18:41;8.75;95.89
66035;HTU21D;52805;51.074;5.842;2023-12-20T11:21:06;8.80;94.60
66035;HTU21D;52805;51.074;5.842;2023-12-20T11:23:32;8.79;93.92
66035;HTU21D;52805;51.074;5.842;2023-12-20T11:26:02;8.76;94.01
66035;HTU21D;52805;51.074;5.842;2023-12-20T11:28:29;8.74;94.00
66035;HTU21D;52805;51.074;5.842;2023-12-20T11:30:58;8.70;94.79
66035;HTU21D;52805;51.074;5.842;2023-12-20T11:33:46;8.66;95.13
66035;HTU21D;52805;51.074;5.842;2023-12-20T11:36:16;8.74;94.49
66035;HTU21D;52805;51.074;5.842;2023-12-20T11:38:57;8.67;94.95
66035;HTU21D;52805;51.074;5.842;2023-12-20T11:41:23;8.64;95.36
66035;HTU21D;52805;51.074;5.842;2023-12-20T11:43:53;8.64;95.72
66035;HTU21D;52805;51.074;5.842;2023-12-20T11:46:19;8.66;95.61
66035;HTU21D;52805;51.074;5.842;2023-12-20T11:48:46;8.65;95.55
66035;HTU21D;52805;51.074;5.842;2023-12-20T11:51:13;8.63;95.68
66035;HTU21D;52805;51.074;5.842;2023-12-20T11:53:41;8.62;95.89
66035;HTU21D;52805;51.074;5.842;2023-12-20T11:56:08;8.62;96.10
66035;HTU21D;52805;51.074;5.842;2023-12-20T11:58:34;8.59;96.39
66035;HTU21D;52805;51.074;5.842;2023-12-20T12:01:00;8.59;96.91
66035;HTU21D;52805;51.074;5.842;2023-12-20T12:03:28;8.60;96.65
66035;HTU21D;52805;51.074;5.842;2023-12-20T12:05:53;8.63;96.75
66035;HTU21D;52805;51.074;5.842;2023-12-20T12:08:19;8.65;96.45
66035;HTU21D;52805;51.074;5.842;2023-12-20T12:10:45;8.58;97.88
66035;HTU21D;52805;51.074;5.842;2023-12-20T12:13:11;8.58;99.20
66035;HTU21D;52805;51.074;5.842;2023-12-20T12:15:37;8.61;98.77
66035;HTU21D;52805;51.074;5.842;2023-12-20T12:18:03;8.59;99.72
66035;HTU21D;52805;51.074;5.842;2023-12-20T12:20:29;8.58;99.71
66035;HTU21D;52805;51.074;5.842;2023-12-20T12:23:03;8.61;100.11
66035;HTU21D;52805;51.074;5.842;2023-12-20T12:25:30;8.60;101.41
66035;HTU21D;52805;51.074;5.842;2023-12-20T12:27:58;8.66;101.71
66035;HTU21D;52805;51.074;5.842;2023-12-20T12:30:24;8.65;102.32
66035;HTU21D;52805;51.074;5.842;2023-12-20T12:32:51;8.67;102.28
66035;HTU21D;52805;51.074;5.842;2023-12-20T12:35:17;8.67;103.86
66035;HTU21D;52805;51.074;5.842;2023-12-20T12:37:44;8.70;103.67
66035;HTU21D;52805;51.074;5.842;2023-12-20T12:40:15;8.72;103.63
66035;HTU21D;52805;51.074;5.842;2023-12-20T12:42:42;8.66;104.83
66035;HTU21D;52805;51.074;5.842;2023-12-20T12:45:09;8.67;105.33
66035;HTU21D;52805;51.074;5.842;2023-12-20T12:47:35;8.71;106.49
66035;HTU21D;52805;51.074;5.842;2023-12-20T12:50:01;8.77;106.59
66035;HTU21D;52805;51.074;5.842;2023-12-20T12:52:27;8.81;107.26
66035;HTU21D;52805;51.074;5.842;2023-12-20T12:54:53;8.82;106.91
66035;HTU21D;52805;51.074;5.842;2023-12-20T12:57:19;8.83;106.74
66035;HTU21D;52805;51.074;5.842;2023-12-20T12:59:45;8.85;106.72
66035;HTU21D;52805;51.074;5.842;2023-12-20T13:02:12;8.78;107.62
66035;HTU21D;52805;51.074;5.842;2023-12-20T13:04:39;8.78;108.81
66035;HTU21D;52805;51.074;5.842;2023-12-20T13:07:06;8.77;109.07
66035;HTU21D;52805;51.074;5.842;2023-12-20T13:09:32;8.79;109.88
66035;HTU21D;52805;51.074;5.842;2023-12-20T13:11:58;8.81;109.55
66035;HTU21D;52805;51.074;5.842;2023-12-20T13:14:24;8.77;110.18
66035;HTU21D;52805;51.074;5.842;2023-12-20T13:16:50;8.77;110.40
66035;HTU21D;52805;51.074;5.842;2023-12-20T13:19:16;8.76;110.86
66035;HTU21D;52805;51.074;5.842;2023-12-20T13:21:43;8.74;111.66
66035;HTU21D;52805;51.074;5.842;2023-12-20T13:24:08;8.79;111.65
66035;HTU21D;52805;51.074;5.842;2023-12-20T13:26:34;8.81;112.10
66035;HTU21D;52805;51.074;5.842;2023-12-20T13:29:00;8.81;112.00
66035;HTU21D;52805;51.074;5.842;2023-12-20T13:31:25;8.85;112.67
66035;HTU21D;52805;51.074;5.842;2023-12-20T13:33:51;8.85;113.39
66035;HTU21D;52805;51.074;5.842;2023-12-20T13:36:18;8.86;114.09
66035;HTU21D;52805;51.074;5.842;2023-12-20T13:38:44;8.90;115.19
66035;HTU21D;52805;51.074;5.842;2023-12-20T13:41:10;8.90;114.84
66035;HTU21D;52805;51.074;5.842;2023-12-20T13:43:35;8.90;114.90
66035;HTU21D;52805;51.074;5.842;2023-12-20T13:46:01;8.93;115.40
66035;HTU21D;52805;51.074;5.842;2023-12-20T13:48:27;8.92;115.71
66035;HTU21D;52805;51.074;5.842;2023-12-20T13:50:53;8.92;115.99
66035;HTU21D;52805;51.074;5.842;2023-12-20T13:53:20;9.04;115.79
66035;HTU21D;52805;51.074;5.842;2023-12-20T13:55:45;8.97;115.96
66035;HTU21D;52805;51.074;5.842;2023-12-20T13:58:12;9.05;114.93
66035;HTU21D;52805;51.074;5.842;2023-12-20T14:00:38;9.00;116.07
66035;HTU21D;52805;51.074;5.842;2023-12-20T14:03:04;8.97;116.18
66035;HTU21D;52805;51.074;5.842;2023-12-20T14:05:31;8.97;116.22
66035;HTU21D;52805;51.074;5.842;2023-12-20T14:07:57;8.95;115.62
66035;HTU21D;52805;51.074;5.842;2023-12-20T14:10:23;8.94;116.86
66035;HTU21D;52805;51.074;5.842;2023-12-20T14:12:52;9.00;117.05
66035;HTU21D;52805;51.074;5.842;2023-12-20T14:15:18;8.95;116.96
66035;HTU21D;52805;51.074;5.842;2023-12-20T14:17:44;8.98;116.78
66035;HTU21D;52805;51.074;5.842;2023-12-20T14:20:10;9.01;115.99
66035;HTU21D;52805;51.074;5.842;2023-12-20T14:22:38;8.96;116.93
66035;HTU21D;52805;51.074;5.842;2023-12-20T14:25:04;9.00;116.09
66035;HTU21D;52805;51.074;5.842;2023-12-20T14:27:31;8.96;116.40
66035;HTU21D;52805;51.074;5.842;2023-12-20T14:29:57;8.95;116.87
66035;HTU21D;52805;51.074;5.842;2023-12-20T14:32:24;8.94;117.35
66035;HTU21D;52805;51.074;5.842;2023-12-20T14:34:52;8.98;116.58
66035;HTU21D;52805;51.074;5.842;2023-12-20T14:37:17;8.96;116.73
66035;HTU21D;52805;51.074;5.842;2023-12-20T14:39:43;8.97;117.10
66035;HTU21D;52805;51.074;5.842;2023-12-20T14:42:09;9.01;117.03
66035;HTU21D;52805;51.074;5.842;2023-12-20T14:44:42;9.06;116.09
66035;HTU21D;52805;51.074;5.842;2023-12-20T14:47:08;9.06;115.19
66035;HTU21D;52805;51.074;5.842;2023-12-20T14:49:34;9.02;115.52
66035;HTU21D;52805;51.074;5.842;2023-12-20T14:52:00;9.05;116.35
66035;HTU21D;52805;51.074;5.842;2023-12-20T14:54:26;9.03;115.54
66035;HTU21D;52805;51.074;5.842;2023-12-20T14:56:51;9.05;115.47
66035;HTU21D;52805;51.074;5.842;2023-12-20T14:59:17;9.06;115.45
66035;HTU21D;52805;51.074;5.842;2023-12-20T15:01:43;9.04;115.83
66035;HTU21D;52805;51.074;5.842;2023-12-20T15:04:10;9.03;115.38
66035;HTU21D;52805;51.074;5.842;2023-12-20T15:06:36;9.02;114.68
66035;HTU21D;52805;51.074;5.842;2023-12-20T15:09:02;9.03;115.05
66035;HTU21D;52805;51.074;5.842;2023-12-20T15:11:30;9.03;114.87
66035;HTU21D;52805;51.074;5.842;2023-12-20T15:13:56;9.05;114.74